LOWL/LNZ METAR and TAF weather

Enter ICAO airport designator
Station Type Date Time Source
LOWL METAR 2021/07/30 08:20 UTC NOAA

LOWL 300820Z VRB02KT CAVOK 23/17 Q1013 NOSIG


Station Type Date Time Source
LOWL Decoded METAR 2021/07/30 08:20 UTC NOAA

Linz / Hoersching-Flughafen, Austria (LOWL) 48-14N 014-11E 313M
Jul 30, 2021 - 04:20 AM EDT / 2021.07.30 0820 UTC
Wind: Variable at 2 MPH (2 KT):0
Visibility: greater than 7 mile(s):0
Temperature: 73 F (23 C)
Dew Point: 62 F (17 C)
Relative Humidity: 68%
Pressure (altimeter): 29.91 in. Hg (1013 hPa)
ob: LOWL 300820Z VRB02KT CAVOK 23/17 Q1013 NOSIG
cycle: 8

Station Type Date Time Source
LOWL TAF 2021/07/30 06:21 UTC NOAA

TAF LOWL 300515Z 3006/3106 VRB02KT 9999 FEW060 TX28/3015Z TN18/3006Z PROB30
TEMPO 3006/3008 SHRA FEW050CB
TEMPO 3012/3022 24008KT FEW050CB
TEMPO 3022/3106 27015KT SHRA SCT030CB BKN050 PROB40
TEMPO 3022/3106 2000 TSRA BKN012

Example: see airport list